^^
De Soto Valley Weather Station Historical Data
 
Daily Summary for July 16, 2019 Units:  English    Metric   Both
Daily Weekly Monthly Yearly Custom
  Current: High: Low: Average:
Temperature: 77.9 °F 87.9 °F 69.7 °F 78.1 °F
Dew Point: 75.7 °F 79.7 °F 68 °F 73.1 °F
Humidity: 93% 95% 65% 85%
Wind Speed: 2mph 8.1mph 0mph 0.9mph
Wind Gust: 6mph 12mph - -
WindSE - - South
Pressure: 29.72 in 29.82 in 29.69 in -
Precipitation: 0.03 in      
Historical Graphs
 
 
Tabular Data for July 16, 2019
Time Temperature Dew Point Pressure Wind Wind Speed Wind Gust Humidity Rainfall Rate (Hourly) solar
00:00 76.9 °F 72 °F 29.82 in SE 1 mph 4 mph 85% 0 in 0.00 W/m2
00:05 76.5 °F 72.3 °F 29.81 in Calm     87% 0 in 0.00 W/m2
00:10 76.2 °F 72.4 °F 29.81 in Calm     88% 0.01 in 0.00 W/m2
00:15 75.8 °F 72.3 °F 29.81 in Calm   1 mph 89% 0 in 0.00 W/m2
00:20 75.3 °F 71.9 °F 29.81 in Calm     89% 0 in 0.00 W/m2
00:25 74.9 °F 71.7 °F 29.81 in Calm   1 mph 90% 0 in 0.00 W/m2
00:30 74.1 °F 70.6 °F 29.81 in Calm   6 mph 89% 0 in 0.00 W/m2
00:35 73.6 °F 70.5 °F 29.80 in Calm   2 mph 90% 0 in 0.00 W/m2
00:39 73 °F 69.6 °F 29.79 in West 3.5 mph 0.9 mph 89% 0.01 in 0.00 W/m2
00:45 72.6 °F 69.5 °F 29.78 in Calm   2 mph 90% 0 in 0.00 W/m2
00:50 72.2 °F 69.1 °F 29.78 in NNW 2.3 mph 1 mph 90% 0.01 in 0.00 W/m2
00:55 71.7 °F 68.6 °F 29.78 in NNW 6 mph 2.2 mph 90% 0 in 0.00 W/m2
00:59 71.3 °F 68.5 °F 29.78 in NNW 1.2 mph   91% 0 in 0.00 W/m2
01:04 71.2 °F 68.4 °F 29.78 in NNW 1 mph 0.3 mph 91% 0 in 0.00 W/m2
01:10 71 °F 68.2 °F 29.78 in Calm   1 mph 91% 0 in 0.00 W/m2
01:15 70.8 °F 68.4 °F 29.77 in NNW 1 mph 3 mph 92% 0 in 0.00 W/m2
01:20 70.6 °F 68.5 °F 29.77 in Calm   2 mph 93% 0 in 0.00 W/m2
01:25 70.6 °F 68.5 °F 29.77 in Calm     93% 0 in 0.00 W/m2
01:30 70.4 °F 68.3 °F 29.77 in Calm   1 mph 93% 0 in 0.00 W/m2
01:35 70.3 °F 68.5 °F 29.77 in Calm   1 mph 94% 0 in 0.00 W/m2
01:40 70.1 °F 68.3 °F 29.75 in Calm   2 mph 94% 0 in 0.00 W/m2
01:45 69.8 °F 68 °F 29.74 in Calm   2 mph 94% 0 in 0.00 W/m2
01:50 69.7 °F 68.2 °F 29.73 in North 3 mph 5 mph 95% 0 in 0.00 W/m2
01:55 69.8 °F 68.3 °F 29.72 in NNE 3 mph 6 mph 95% 0 in 0.00 W/m2
02:00 70.3 °F 68.8 °F 29.71 in Calm   6 mph 95% 0 in 0.00 W/m2
02:05 70.9 °F 69.4 °F 29.70 in NNW 2 mph 12 mph 95% 0 in 0.00 W/m2
02:09 71.8 °F 70 °F 29.70 in WNW 8.1 mph 3.1 mph 94% 0 in 0.00 W/m2
02:14 72.4 °F 70.6 °F 29.69 in SSE 5.8 mph 3.1 mph 94% 0 in 0.00 W/m2
02:20 72.8 °F 70.7 °F 29.69 in NNW 2 mph 6 mph 93% 0 in 0.00 W/m2
02:25 73.1 °F 70.6 °F 29.70 in North 2 mph 4 mph 92% 0 in 0.00 W/m2
02:30 73.1 °F 70.6 °F 29.72 in NNE 2.3 mph 0.4 mph 92% 0 in 0.00 W/m2
02:35 73.1 °F 70.6 °F 29.73 in Calm     92% 0 in 0.00 W/m2
02:40 73.1 °F 70.6 °F 29.73 in Calm   1 mph 92% 0 in 0.00 W/m2
02:45 72.8 °F 70.3 °F 29.73 in Calm   3 mph 92% 0 in 0.00 W/m2
02:50 72.6 °F 70.2 °F 29.73 in Calm   1 mph 92% 0 in 0.00 W/m2
02:55 72.5 °F 70 °F 29.73 in Calm   1 mph 92% 0 in 0.00 W/m2
02:59 72.2 °F 70.1 °F 29.73 in ENE 2.3 mph 0.4 mph 93% 0 in 0.00 W/m2
03:05 72.1 °F 70 °F 29.73 in Calm   3 mph 93% 0 in 0.00 W/m2
03:10 72 °F 70.2 °F 29.72 in ENE 1 mph 5 mph 94% 0 in 0.00 W/m2
03:15 71.9 °F 70.1 °F 29.72 in East 1 mph 7 mph 94% 0 in 0.00 W/m2
03:20 71.9 °F 70.1 °F 29.71 in SE 1 mph 5 mph 94% 0 in 0.00 W/m2
03:25 72.1 °F 70 °F 29.70 in SE 1 mph 5 mph 93% 0 in 0.00 W/m2
03:30 72.5 °F 70 °F 29.70 in NE 1 mph 3 mph 92% 0 in 0.00 W/m2
03:35 72.9 °F 70.4 °F 29.71 in NNE 1 mph 4 mph 92% 0 in 0.00 W/m2
03:40 73.2 °F 70.4 °F 29.70 in SW 3.5 mph 1.9 mph 91% 0 in 0.00 W/m2
03:45 73.3 °F 70.5 °F 29.70 in Calm   3 mph 91% 0 in 0.00 W/m2
03:49 73.3 °F 70.5 °F 29.70 in SSW 2 mph 0.4 mph 91% 0 in 0.00 W/m2
03:55 73.2 °F 70.1 °F 29.70 in South 2 mph 7 mph 90% 0 in 0.00 W/m2
03:59 73.3 °F 70.2 °F 29.70 in WNW 1.2 mph   90% 0 in 0.00 W/m2
04:05 73.3 °F 70.2 °F 29.70 in Calm   2 mph 90% 0 in 0.00 W/m2
04:10 73.3 °F 70.2 °F 29.70 in ENE 2 mph 4 mph 90% 0 in 0.00 W/m2
04:15 73.3 °F 70.2 °F 29.70 in SE 1 mph 4 mph 90% 0 in 0.00 W/m2
04:20 73.2 °F 70.1 °F 29.70 in Calm   2 mph 90% 0 in 0.00 W/m2
04:25 73.2 °F 70.1 °F 29.70 in Calm     90% 0 in 0.00 W/m2
04:29 73 °F 70.2 °F 29.70 in Calm     91% 0 in 0.00 W/m2
04:35 72.8 °F 70 °F 29.70 in Calm     91% 0 in 0.00 W/m2
04:39 72.5 °F 69.7 °F 29.70 in NNE 2.3 mph   91% 0 in 0.00 W/m2
04:45 72.3 °F 69.9 °F 29.70 in Calm   1 mph 92% 0 in 0.00 W/m2
04:49 72.2 °F 69.7 °F 29.71 in Calm     92% 0 in 0.00 W/m2
04:55 71.9 °F 69.4 °F 29.71 in North 1 mph 2 mph 92% 0 in 0.00 W/m2
05:00 71.7 °F 69.6 °F 29.72 in Calm   5 mph 93% 0 in 0.00 W/m2
05:05 71.7 °F 69.6 °F 29.72 in Calm   2 mph 93% 0 in 0.00 W/m2
05:10 71.6 °F 69.5 °F 29.72 in Calm   3 mph 93% 0 in 0.00 W/m2
05:15 71.7 °F 69.5 °F 29.72 in Calm   2 mph 93% 0 in 0.00 W/m2
05:20 71.7 °F 69.6 °F 29.72 in Calm   4 mph 93% 0 in 0.00 W/m2
05:25 71.7 °F 69.3 °F 29.72 in Calm   3 mph 92% 0 in 0.00 W/m2
05:30 71.7 °F 69.3 °F 29.72 in Calm   3 mph 92% 0 in 0.00 W/m2
05:35 71.7 °F 69.3 °F 29.72 in WNW 1.2 mph 0.1 mph 92% 0 in 0.00 W/m2
05:39 71.7 °F 69.6 °F 29.72 in Calm     93% 0 in 0.00 W/m2
05:45 71.4 °F 69 °F 29.71 in ESE 3.5 mph 1.5 mph 92% 0 in 0.00 W/m2
05:50 71.3 °F 68.9 °F 29.71 in Calm   2 mph 92% 0 in 7.00 W/m2
05:55 71.3 °F 68.9 °F 29.72 in Calm   3 mph 92% 0 in 9.00 W/m2
06:00 71.5 °F 69.1 °F 29.73 in Calm   3 mph 92% 0 in 12.00 W/m2
06:05 71.6 °F 69.2 °F 29.73 in Calm     92% 0 in 14.00 W/m2
06:10 71.5 °F 69.4 °F 29.73 in Calm     93% 0 in 18.00 W/m2
06:15 71.5 °F 69.4 °F 29.73 in Calm     93% 0 in 21.00 W/m2
06:19 71.3 °F 69.2 °F 29.73 in Calm   0.4 mph 93% 0 in 28.00 W/m2
06:25 71.2 °F 69.1 °F 29.73 in Calm     93% 0 in 30.00 W/m2
06:30 71.1 °F 69 °F 29.74 in West 1 mph 2 mph 93% 0 in 28.00 W/m2
06:35 71.1 °F 69 °F 29.75 in Calm   1 mph 93% 0 in 32.00 W/m2
06:40 71.2 °F 69.4 °F 29.74 in WSW 2.3 mph 0.6 mph 94% 0 in 32.00 W/m2
06:45 71.2 °F 69.4 °F 29.75 in WSW 1 mph 3 mph 94% 0 in 28.00 W/m2
06:50 71.3 °F 69.4 °F 29.75 in Calm   2 mph 94% 0 in 32.00 W/m2
06:55 71.3 °F 69.5 °F 29.75 in Calm     94% 0 in 32.00 W/m2
07:00 71.4 °F 69.3 °F 29.75 in South 1 mph 6 mph 93% 0 in 37.00 W/m2
07:05 71.6 °F 69.4 °F 29.75 in Calm   3 mph 93% 0 in 39.00 W/m2
07:10 71.7 °F 69.6 °F 29.75 in Calm   2 mph 93% 0 in 44.00 W/m2
07:15 71.9 °F 69.8 °F 29.75 in West 1 mph 2 mph 93% 0 in 47.00 W/m2
07:20 72.1 °F 70 °F 29.75 in WSW 1 mph 3 mph 93% 0 in 51.00 W/m2
07:25 72.2 °F 69.8 °F 29.75 in Calm   3 mph 92% 0 in 63.00 W/m2
07:30 72.4 °F 69.6 °F 29.75 in South 2 mph 5 mph 91% 0 in 60.00 W/m2
07:35 72.6 °F 69.8 °F 29.74 in South 2 mph 4 mph 91% 0 in 65.00 W/m2
07:40 72.8 °F 70 °F 29.75 in SSW 2 mph 5 mph 91% 0 in 60.00 W/m2
07:45 73 °F 70.2 °F 29.74 in South 1 mph 3 mph 91% 0 in 62.00 W/m2
07:50 73.3 °F 70.1 °F 29.74 in SSW 1 mph 3 mph 90% 0 in 214.00 W/m2
07:55 73.6 °F 70.2 °F 29.74 in Calm   7 mph 89% 0 in 264.00 W/m2
08:00 74.2 °F 70.7 °F 29.74 in SE 1 mph 2 mph 89% 0 in 348.00 W/m2
08:05 74.6 °F 70.8 °F 29.74 in SW 1 mph 5 mph 88% 0 in 374.00 W/m2
08:10 75 °F 70.8 °F 29.74 in SW 2 mph 6 mph 87% 0 in 411.00 W/m2
08:15 75.5 °F 71.3 °F 29.75 in Calm   5 mph 87% 0 in 153.00 W/m2
08:20 75.5 °F 70.7 °F 29.74 in Calm   2 mph 85% 0 in 84.00 W/m2
08:25 75.3 °F 70.8 °F 29.75 in South 1 mph 2 mph 86% 0 in 109.00 W/m2
08:30 75 °F 70.6 °F 29.75 in Calm   1 mph 86% 0 in 146.00 W/m2
08:35 74.8 °F 70.3 °F 29.75 in SSE 1 mph 3 mph 86% 0 in 220.00 W/m2
08:40 74.9 °F 71.1 °F 29.74 in Calm   3 mph 88% 0 in 172.00 W/m2
08:45 75.5 °F 71.4 °F 29.74 in Calm   2 mph 87% 0 in 545.00 W/m2
08:50 76.1 °F 71.6 °F 29.75 in South 1 mph 3 mph 86% 0 in 577.00 W/m2
08:55 76.4 °F 71.6 °F 29.75 in South 1 mph 3 mph 85% 0 in 621.00 W/m2
08:59 76.9 °F 71.7 °F 29.75 in SSW 3.5 mph 1 mph 84% 0 in 659.00 W/m2
09:05 77.3 °F 72.1 °F 29.75 in Calm   4 mph 84% 0 in 262.00 W/m2
09:10 77.4 °F 71.8 °F 29.75 in SSE 1 mph 3 mph 83% 0 in 246.00 W/m2
09:15 77.1 °F 71.5 °F 29.75 in Calm   2 mph 83% 0 in 223.00 W/m2
09:20 76.9 °F 71.7 °F 29.75 in Calm     84% 0 in 441.00 W/m2
09:25 77.7 °F 72.1 °F 29.75 in SSE 3.5 mph 1.4 mph 83% 0 in 719.00 W/m2
09:30 77.6 °F 72 °F 29.75 in SSE 3.5 mph 1.2 mph 83% 0 in 388.00 W/m2
09:35 78 °F 72.8 °F 29.75 in SSE 2 mph 4 mph 84% 0 in 670.00 W/m2
09:40 78.1 °F 71.8 °F 29.75 in SSE 1 mph 4 mph 81% 0 in 710.00 W/m2
09:45 78 °F 72.1 °F 29.75 in Calm   3 mph 82% 0 in 206.00 W/m2
09:50 78.1 °F 72.2 °F 29.75 in South 1 mph 3 mph 82% 0 in 178.00 W/m2
09:55 77.9 °F 72 °F 29.75 in Calm   2 mph 82% 0 in 392.00 W/m2
10:00 77.8 °F 72.2 °F 29.75 in Calm   2 mph 83% 0 in 255.00 W/m2
10:05 77.8 °F 72.2 °F 29.75 in Calm   1 mph 83% 0 in 265.00 W/m2
10:10 78 °F 71.7 °F 29.75 in Calm     81% 0 in 758.00 W/m2
10:15 78.7 °F 73.1 °F 29.75 in SSE 1 mph 3 mph 83% 0 in 770.00 W/m2
10:19 78.8 °F 72.8 °F 29.76 in SE 3.5 mph 2 mph 82% 0 in 304.00 W/m2
10:25 78.8 °F 72.5 °F 29.76 in SE 1 mph 3 mph 81% 0 in 882.00 W/m2
10:29 79.5 °F 73.2 °F 29.75 in SSE 3.5 mph 1.7 mph 81% 0 in 846.00 W/m2
10:35 79.5 °F 72.7 °F 29.75 in SSE 1 mph 3 mph 80% 0 in 374.00 W/m2
10:39 80.2 °F 74.2 °F 29.75 in SE 2 mph   82% 0 in 663.00 W/m2
10:45 80.3 °F 73.2 °F 29.75 in Calm   4 mph 79% 0 in 248.00 W/m2
10:50 80.2 °F 73.1 °F 29.75 in SSW 2 mph 4 mph 79% 0 in 768.00 W/m2
10:55 80.7 °F 73.6 °F 29.75 in SW 1 mph 3 mph 79% 0 in 788.00 W/m2
10:59 80.6 °F 73.9 °F 29.75 in SSE 3.5 mph 0.9 mph 80% 0 in 805.00 W/m2
11:05 81.3 °F 74.9 °F 29.75 in South 3.5 mph 1.4 mph 81% 0 in 810.00 W/m2
11:10 81.3 °F 74.1 °F 29.75 in Calm   2 mph 79% 0 in 812.00 W/m2
11:15 81.9 °F 74.4 °F 29.75 in Calm   2 mph 78% 0 in 814.00 W/m2
11:19 81.3 °F 73.4 °F 29.75 in SSW 3.5 mph 0.9 mph 77% 0 in 823.00 W/m2
11:25 82 °F 75.2 °F 29.75 in South 3.5 mph 2.1 mph 80% 0 in 828.00 W/m2
11:30 82.1 °F 74.5 °F 29.75 in SSE 1 mph 3 mph 78% 0 in 833.00 W/m2
11:35 82.3 °F 75.1 °F 29.75 in SSE 1 mph 4 mph 79% 0 in 837.00 W/m2
11:40 82.6 °F 75 °F 29.75 in SW 1 mph 5 mph 78% 0 in 844.00 W/m2
11:45 83 °F 75 °F 29.75 in SSW 2 mph 5 mph 77% 0 in 849.00 W/m2
11:49 82.6 °F 73.9 °F 29.75 in ESE 2.3 mph 0.6 mph 75% 0 in 847.00 W/m2
11:55 82.9 °F 74.9 °F 29.75 in Calm   5 mph 77% 0 in 860.00 W/m2
12:00 83.4 °F 75.8 °F 29.75 in Calm   4 mph 78% 0 in 868.00 W/m2
12:05 83.2 °F 74.1 °F 29.75 in Calm   2 mph 74% 0 in 877.00 W/m2
12:10 83.4 °F 74.2 °F 29.75 in SSE 3.5 mph 2.1 mph 74% 0 in 881.00 W/m2
12:15 83.4 °F 74.6 °F 29.75 in South 2 mph 4 mph 75% 0 in 886.00 W/m2
12:20 83.6 °F 74.8 °F 29.75 in South 1 mph 3 mph 75% 0 in 889.00 W/m2
12:25 83.6 °F 74 °F 29.75 in SSW 1 mph 5 mph 73% 0 in 895.00 W/m2
12:29 83.5 °F 74.3 °F 29.74 in South 3.5 mph 1.2 mph 74% 0 in 895.00 W/m2
12:35 83.9 °F 75.5 °F 29.74 in South 1 mph 5 mph 76% 0 in 896.00 W/m2
12:39 83.9 °F 74.3 °F 29.74 in SSW 3.5 mph 0.8 mph 73% 0 in 896.00 W/m2
12:45 84.2 °F 74.2 °F 29.74 in SSW 2 mph 5 mph 72% 0 in 900.00 W/m2
12:49 84.3 °F 73.9 °F 29.73 in South 3.5 mph 1.1 mph 71% 0 in 905.00 W/m2
12:55 84.3 °F 74.3 °F 29.73 in South 3.5 mph 2.7 mph 72% 0 in 937.00 W/m2
12:59 84.5 °F 74.1 °F 29.73 in SSE 4.6 mph 1.8 mph 71% 0 in 944.00 W/m2
13:05 84.9 °F 74.4 °F 29.73 in South 2 mph 3 mph 71% 0 in 932.00 W/m2
13:10 84.6 °F 74.6 °F 29.73 in SSE 1.2 mph 0.2 mph 72% 0 in 923.00 W/m2
13:15 84.9 °F 74.8 °F 29.73 in South 1 mph 5 mph 72% 0 in 846.00 W/m2
13:20 85.2 °F 76 °F 29.73 in South 1 mph 4 mph 74% 0 in 919.00 W/m2
13:25 85.6 °F 75.5 °F 29.73 in South 2 mph 4 mph 72% 0 in 942.00 W/m2
13:30 85.5 °F 73.7 °F 29.73 in Calm   3 mph 68% 0 in 907.00 W/m2
13:35 85.5 °F 74.6 °F 29.73 in ESE 1 mph 4 mph 70% 0 in 905.00 W/m2
13:40 85.8 °F 75.3 °F 29.73 in SSE 1 mph 4 mph 71% 0 in 914.00 W/m2
13:45 86.1 °F 76 °F 29.72 in SE 1 mph 4 mph 72% 0 in 907.00 W/m2
13:49 86.3 °F 75.8 °F 29.72 in South 3.5 mph 2.1 mph 71% 0 in 896.00 W/m2
13:55 86.4 °F 76.3 °F 29.72 in South 1 mph 4 mph 72% 0 in 891.00 W/m2
14:00 86.4 °F 75.5 °F 29.72 in South 2 mph 4 mph 70% 0 in 882.00 W/m2
14:04 86.6 °F 76.1 °F 29.71 in SE 3.5 mph 0.9 mph 71% 0 in 879.00 W/m2
14:09 86.4 °F 74.6 °F 29.71 in SE 2.3 mph 0.7 mph 68% 0 in 889.00 W/m2
14:15 86.2 °F 74.8 °F 29.71 in SSE 1 mph 3 mph 69% 0 in 893.00 W/m2
14:20 86.9 °F 77.2 °F 29.71 in SSE 3 mph 5 mph 73% 0 in 893.00 W/m2
14:25 87 °F 76.1 °F 29.71 in South 1 mph 4 mph 70% 0 in 905.00 W/m2
14:30 87.3 °F 76.3 °F 29.71 in South 3.5 mph 1.9 mph 70% 0 in 983.00 W/m2
14:35 87.3 °F 75.9 °F 29.71 in SSW 1 mph 4 mph 69% 0 in 965.00 W/m2
14:40 87.2 °F 74.9 °F 29.71 in South 1 mph 4 mph 67% 0 in 410.00 W/m2
14:45 87.2 °F 75.7 °F 29.71 in SSE 1 mph 3 mph 69% 0 in 972.00 W/m2
14:50 87.4 °F 74.2 °F 29.71 in SE 2 mph 4 mph 65% 0 in 875.00 W/m2
14:55 87.8 °F 76.3 °F 29.71 in SSE 2 mph 4 mph 69% 0 in 861.00 W/m2
15:00 87.9 °F 76.9 °F 29.71 in SSW 1 mph 4 mph 70% 0 in 698.00 W/m2
15:05 87.7 °F 74.5 °F 29.71 in Calm   4 mph 65% 0 in 717.00 W/m2
15:10 87.6 °F 74.8 °F 29.71 in Calm   3 mph 66% 0 in 420.00 W/m2
15:15 87.4 °F 76.4 °F 29.71 in Calm   1 mph 70% 0 in 404.00 W/m2
15:20 87.2 °F 75.3 °F 29.71 in SSW 1.2 mph 0.1 mph 68% 0 in 645.00 W/m2
15:25 87.3 °F 75 °F 29.71 in SSW 2 mph 5 mph 67% 0 in 420.00 W/m2
15:30 87.2 °F 76.2 °F 29.71 in Calm   4 mph 70% 0 in 315.00 W/m2
15:34 86.6 °F 75.6 °F 29.71 in SSE 1.2 mph   70% 0 in 278.00 W/m2
15:40 86.3 °F 75.8 °F 29.71 in Calm   2 mph 71% 0 in 255.00 W/m2
15:45 85.9 °F 76.6 °F 29.71 in Calm   1 mph 74% 0 in 237.00 W/m2
15:50 85.4 °F 77.3 °F 29.71 in Calm     77% 0 in 225.00 W/m2
15:54 84.8 °F 77.9 °F 29.70 in Calm     80% 0 in 216.00 W/m2
16:00 84.3 °F 77.8 °F 29.70 in Calm     81% 0 in 218.00 W/m2
16:04 84.1 °F 78.7 °F 29.70 in Calm     84% 0 in 234.00 W/m2
16:10 83.7 °F 77.9 °F 29.70 in Calm     83% 0 in 241.00 W/m2
16:15 83.5 °F 78.5 °F 29.70 in Calm     85% 0 in 230.00 W/m2
16:20 83.6 °F 79 °F 29.70 in Calm     86% 0 in 232.00 W/m2
16:25 83.7 °F 79.4 °F 29.70 in Calm     87% 0 in 283.00 W/m2
16:30 83.7 °F 79.1 °F 29.70 in Calm     86% 0 in 279.00 W/m2
16:35 84 °F 79 °F 29.70 in Calm     85% 0 in 380.00 W/m2
16:40 84.5 °F 79.1 °F 29.70 in Calm     84% 0 in 265.00 W/m2
16:45 84.7 °F 79.7 °F 29.70 in Calm     85% 0 in 221.00 W/m2
16:49 84.7 °F 79.7 °F 29.70 in Calm     85% 0 in 197.00 W/m2
16:55 84.5 °F 78.7 °F 29.70 in Calm     83% 0 in 185.00 W/m2
17:00 84.2 °F 78.5 °F 29.70 in Calm     83% 0 in 172.00 W/m2
17:05 84 °F 79 °F 29.70 in Calm     85% 0 in 162.00 W/m2
17:10 83.8 °F 79.1 °F 29.70 in Calm     86% 0 in 153.00 W/m2
17:15 83.5 °F 79.2 °F 29.70 in Calm     87% 0 in 171.00 W/m2
17:20 83.4 °F 79.5 °F 29.70 in Calm     88% 0 in 160.00 W/m2
17:25 83.4 °F 79.5 °F 29.70 in Calm     88% 0 in 128.00 W/m2
17:30 83.1 °F 79.2 °F 29.71 in Calm     88% 0 in 127.00 W/m2
17:35 83 °F 79.1 °F 29.71 in Calm     88% 0 in 130.00 W/m2
17:40 82.9 °F 79.3 °F 29.71 in Calm     89% 0 in 116.00 W/m2
17:45 82.7 °F 78.8 °F 29.71 in Calm     88% 0 in 134.00 W/m2
17:49 82.5 °F 78.2 °F 29.71 in Calm     87% 0 in 144.00 W/m2
17:55 82.7 °F 78.8 °F 29.71 in Calm     88% 0 in 134.00 W/m2
18:00 82.6 °F 78.3 °F 29.71 in Calm     87% 0 in 121.00 W/m2
18:05 82.4 °F 78.1 °F 29.71 in Calm     87% 0 in 100.00 W/m2
18:10 82.5 °F 78.2 °F 29.71 in Calm     87% 0 in 70.00 W/m2
18:15 82.6 °F 78.7 °F 29.71 in Calm     88% 0 in 58.00 W/m2
18:20 82.5 °F 78.2 °F 29.71 in Calm     87% 0 in 46.00 W/m2
18:25 82.1 °F 78.2 °F 29.71 in Calm     88% 0 in 35.00 W/m2
18:30 81.6 °F 77.4 °F 29.71 in Calm     87% 0 in 28.00 W/m2
18:35 81.1 °F 76.8 °F 29.70 in Calm     87% 0 in 25.00 W/m2
18:40 80.6 °F 76.4 °F 29.71 in Calm     87% 0 in 26.00 W/m2
18:45 80.3 °F 76.1 °F 29.72 in Calm     87% 0 in 32.00 W/m2
18:50 80 °F 75.8 °F 29.72 in Calm     87% 0 in 32.00 W/m2
18:55 79.9 °F 76 °F 29.72 in Calm     88% 0 in 26.00 W/m2
19:00 79.7 °F 76.2 °F 29.72 in Calm     89% 0 in 23.00 W/m2
19:05 79.5 °F 76 °F 29.72 in Calm     89% 0 in 21.00 W/m2
19:10 79.3 °F 75.8 °F 29.72 in Calm     89% 0 in 21.00 W/m2
19:15 79.2 °F 76 °F 29.72 in Calm     90% 0 in 21.00 W/m2
19:19 79 °F 75.8 °F 29.72 in Calm     90% 0 in 21.00 W/m2
19:25 78.9 °F 75.7 °F 29.72 in Calm     90% 0 in 18.00 W/m2
19:30 78.7 °F 75.5 °F 29.72 in Calm     90% 0 in 16.00 W/m2
19:34 78.7 °F 75.8 °F 29.72 in Calm     91% 0 in 14.00 W/m2
19:40 78.7 °F 75.8 °F 29.72 in Calm     91% 0 in 11.00 W/m2
19:45 78.6 °F 76.1 °F 29.72 in Calm     92% 0 in 7.00 W/m2
19:50 78.5 °F 76 °F 29.72 in Calm     92% 0 in 5.00 W/m2
19:55 78.4 °F 75.9 °F 29.72 in Calm     92% 0 in 0.00 W/m2
20:00 78.4 °F 75.9 °F 29.72 in Calm     92% 0 in 0.00 W/m2
20:05 78.2 °F 76 °F 29.72 in Calm     93% 0 in 0.00 W/m2
20:10 78.1 °F 75.9 °F 29.72 in Calm     93% 0 in 0.00 W/m2
20:15 78 °F 75.8 °F 29.72 in Calm     93% 0 in 0.00 W/m2
20:20 77.9 °F 75.7 °F 29.72 in SE 2 mph 6 mph 93% 0.02 in 0.00 W/m2
De Soto, Wisconsin, USA
Compliments of Weather Underground - 3 mb